createdAt,value
2023-05-22T00:00:50.232Z,71.66
2023-05-22T00:01:50.234Z,71.80
2023-05-22T00:02:50.523Z,71.70
2023-05-22T00:03:50.251Z,72.30
2023-05-22T00:04:50.186Z,71.26
2023-05-22T00:05:50.166Z,71.30
2023-05-22T00:06:50.233Z,71.80
2023-05-22T00:07:50.189Z,73.03
2023-05-22T00:08:50.163Z,73.03
2023-05-22T00:09:50.155Z,72.60
2023-05-22T00:10:50.125Z,73.03
2023-05-22T00:11:50.119Z,73.27
2023-05-22T00:12:50.122Z,74.37
2023-05-22T00:13:50.165Z,75.31
2023-05-22T00:14:50.081Z,75.11
2023-05-22T00:15:50.091Z,75.35
2023-05-22T00:16:50.153Z,76.05
2023-05-22T00:17:50.098Z,76.79
2023-05-22T00:18:50.180Z,77.23
2023-05-22T00:19:50.084Z,77.20
2023-05-22T00:20:50.049Z,77.73
2023-05-22T00:21:50.037Z,77.63
2023-05-22T00:22:50.113Z,77.94
2023-05-22T00:23:50.067Z,77.73
2023-05-22T00:24:50.053Z,77.73
2023-05-22T00:25:50.040Z,77.73
2023-05-22T00:26:50.138Z,77.53
2023-05-22T00:27:50.030Z,77.00
2023-05-22T00:28:50.024Z,76.79
2023-05-22T00:29:49.997Z,77.00
2023-05-22T00:30:50.005Z,76.69
2023-05-22T00:31:49.978Z,76.79
2023-05-22T00:32:50.107Z,77.16
2023-05-22T00:33:50.028Z,77.09
2023-05-22T00:34:50.048Z,76.35
2023-05-22T00:35:49.969Z,76.15
2023-05-22T00:36:49.962Z,76.15
2023-05-22T00:37:49.983Z,75.85
2023-05-22T00:38:49.932Z,76.02
2023-05-22T00:39:49.907Z,75.11
2023-05-22T00:40:49.931Z,75.75
2023-05-22T00:41:49.913Z,76.35
2023-05-22T00:42:49.994Z,76.45
2023-05-22T00:43:49.927Z,76.15
2023-05-22T00:44:49.904Z,76.05
2023-05-22T00:45:49.930Z,75.92
2023-05-22T00:46:49.927Z,75.31
2023-05-22T00:47:49.969Z,75.42
2023-05-22T00:48:49.895Z,74.98
2023-05-22T00:49:49.874Z,75.31
2023-05-22T00:50:49.851Z,75.51
2023-05-22T00:51:49.866Z,75.82
2023-05-22T00:52:49.858Z,76.35
2023-05-22T00:53:49.875Z,76.76
2023-05-22T00:54:49.842Z,77.20
2023-05-22T00:55:49.916Z,76.89
2023-05-22T00:56:49.837Z,77.39
2023-05-22T00:57:49.812Z,76.89
2023-05-22T00:58:49.829Z,77.09
2023-05-22T00:59:49.906Z,77.00
2023-05-22T01:00:49.782Z,76.89
2023-05-22T01:01:49.821Z,76.96
2023-05-22T01:02:49.920Z,77.50
2023-05-22T01:03:49.857Z,77.29
2023-05-22T01:04:49.795Z,77.06
2023-05-22T01:05:49.751Z,76.76
2023-05-22T01:06:49.789Z,76.65
2023-05-22T01:07:49.731Z,76.96
2023-05-22T01:08:49.748Z,76.96
2023-05-22T01:09:49.794Z,76.65
2023-05-22T01:10:49.743Z,77.00
2023-05-22T01:11:49.727Z,77.50
2023-05-22T01:12:49.710Z,77.59
2023-05-22T01:13:49.717Z,77.94
2023-05-22T01:14:49.748Z,77.73
2023-05-22T01:15:49.773Z,79.18
2023-05-22T01:16:49.711Z,78.67
2023-05-22T01:17:49.792Z,79.04
2023-05-22T01:18:49.712Z,78.23
2023-05-22T01:19:49.665Z,78.23
2023-05-22T01:20:49.694Z,77.50
2023-05-22T01:21:49.697Z,76.96
2023-05-22T01:22:49.665Z,76.56
2023-05-22T01:23:49.631Z,76.49
2023-05-22T01:24:49.699Z,77.00
2023-05-22T01:25:49.619Z,77.29
2023-05-22T01:26:49.619Z,77.59
2023-05-22T01:27:49.608Z,77.06
2023-05-22T01:28:49.759Z,77.06
2023-05-22T01:29:49.597Z,76.02
2023-05-22T01:30:49.610Z,75.62
2023-05-22T01:31:50.575Z,75.62
2023-05-22T01:32:49.673Z,75.71
2023-05-22T01:33:49.654Z,76.15
2023-05-22T01:34:49.630Z,76.93
2023-05-22T01:35:49.608Z,78.17
2023-05-22T01:36:49.574Z,78.23
2023-05-22T01:37:49.586Z,77.59
2023-05-22T01:38:49.559Z,77.20
2023-05-22T01:39:49.558Z,77.20
2023-05-22T01:40:49.524Z,76.56
2023-05-22T01:41:49.533Z,77.20
2023-05-22T01:42:49.579Z,77.13
2023-05-22T01:43:49.603Z,77.39
2023-05-22T01:44:49.535Z,77.20
2023-05-22T01:45:49.541Z,76.89
2023-05-22T01:46:49.502Z,77.33
2023-05-22T01:47:49.519Z,76.69
2023-05-22T01:48:49.630Z,76.79
2023-05-22T01:49:49.512Z,76.53
2023-05-22T01:50:49.499Z,77.23
2023-05-22T01:51:49.468Z,77.00
2023-05-22T01:52:49.528Z,76.49
2023-05-22T01:53:49.440Z,76.09
2023-05-22T01:54:49.433Z,76.29
2023-05-22T01:55:49.463Z,76.29
2023-05-22T01:56:49.458Z,76.39
2023-05-22T01:57:49.415Z,76.73
2023-05-22T01:58:49.453Z,77.03
2023-05-22T01:59:49.436Z,76.59
2023-05-22T02:00:49.517Z,76.43
2023-05-22T02:01:49.585Z,77.13
2023-05-22T02:02:49.536Z,76.49
2023-05-22T02:03:49.412Z,76.39
2023-05-22T02:04:49.389Z,76.09
2023-05-22T02:05:49.372Z,76.43
2023-05-22T02:06:49.358Z,76.83
2023-05-22T02:07:49.374Z,76.69
2023-05-22T02:08:49.365Z,77.03
2023-05-22T02:09:49.345Z,77.03
2023-05-22T02:10:49.341Z,76.83
2023-05-22T02:11:49.333Z,76.93
2023-05-22T02:12:49.421Z,76.83
2023-05-22T02:13:49.325Z,77.27
2023-05-22T02:14:49.312Z,77.17
2023-05-22T02:15:49.430Z,77.03
2023-05-22T02:16:49.360Z,76.63
2023-05-22T02:17:49.362Z,76.63
2023-05-22T02:18:49.338Z,76.87
2023-05-22T02:19:49.283Z,77.61
2023-05-22T02:20:49.319Z,77.77
2023-05-22T02:21:49.260Z,77.57
2023-05-22T02:22:49.292Z,77.27
2023-05-22T02:23:49.294Z,77.31
2023-05-22T02:24:49.256Z,77.70
2023-05-22T02:25:49.302Z,77.27
2023-05-22T02:26:49.290Z,76.97
2023-05-22T02:27:49.232Z,77.81
2023-05-22T02:28:49.234Z,78.41
2023-05-22T02:29:49.211Z,78.01
2023-05-22T02:30:49.252Z,77.61
2023-05-22T02:31:49.234Z,78.35
2023-05-22T02:32:49.237Z,78.45
2023-05-22T02:33:49.204Z,78.15
2023-05-22T02:34:50.205Z,78.59
2023-05-22T02:35:49.175Z,80.00
2023-05-22T02:36:49.205Z,79.93
2023-05-22T02:37:49.191Z,79.53
2023-05-22T02:38:49.150Z,80.74
2023-05-22T02:39:50.165Z,80.51
2023-05-22T02:40:49.150Z,80.41
2023-05-22T02:41:49.156Z,80.72
2023-05-22T02:42:49.144Z,81.02
2023-05-22T02:43:49.142Z,81.32
2023-05-22T02:44:49.116Z,80.41
2023-05-22T02:45:49.109Z,81.26
2023-05-22T02:46:50.228Z,80.76
2023-05-22T02:47:49.215Z,80.76
2023-05-22T02:48:49.223Z,80.85
2023-05-22T02:49:49.138Z,81.67
2023-05-22T02:50:49.111Z,81.12
2023-05-22T02:51:49.083Z,81.52
2023-05-22T02:52:49.122Z,81.02
2023-05-22T02:53:49.128Z,81.12
2023-05-22T02:54:49.091Z,81.02
2023-05-22T02:55:49.071Z,80.58
2023-05-22T02:56:49.699Z,80.78
2023-05-22T02:57:49.075Z,80.88
2023-05-22T02:58:49.033Z,80.72
2023-05-22T02:59:49.013Z,80.78
2023-05-22T03:00:49.119Z,80.33
2023-05-22T03:01:49.071Z,79.83
2023-05-22T03:02:49.309Z,79.23
2023-05-22T03:03:49.165Z,78.89
2023-05-22T03:04:49.022Z,79.23
2023-05-22T03:05:48.987Z,78.59
2023-05-22T03:06:49.012Z,79.63
2023-05-22T03:07:49.241Z,79.93
2023-05-22T03:08:48.986Z,79.19
2023-05-22T03:09:49.016Z,78.52
2023-05-22T03:10:48.986Z,78.52
2023-05-22T03:11:48.972Z,79.13
2023-05-22T03:12:49.003Z,78.59
2023-05-22T03:13:49.002Z,77.98
2023-05-22T03:14:48.992Z,78.42
2023-05-22T03:15:49.010Z,79.36
2023-05-22T03:16:49.012Z,79.77
2023-05-22T03:17:48.982Z,80.07
2023-05-22T03:18:49.024Z,79.13
2023-05-22T03:19:48.923Z,78.52
2023-05-22T03:20:49.003Z,78.63
2023-05-22T03:21:48.930Z,79.23
2023-05-22T03:22:48.961Z,78.92
2023-05-22T03:23:48.920Z,78.49
2023-05-22T03:24:48.902Z,78.12
2023-05-22T03:25:48.927Z,78.42
2023-05-22T03:26:48.874Z,78.12
2023-05-22T03:27:48.965Z,78.19
2023-05-22T03:28:48.936Z,78.02
2023-05-22T03:29:48.885Z,78.32
2023-05-22T03:30:48.877Z,78.56
2023-05-22T03:31:48.843Z,78.86
2023-05-22T03:32:48.920Z,79.57
2023-05-22T03:33:48.870Z,79.97
2023-05-22T03:34:48.836Z,79.67
2023-05-22T03:35:48.875Z,79.50
2023-05-22T03:36:48.808Z,79.91
2023-05-22T03:37:48.818Z,79.74
2023-05-22T03:38:48.808Z,80.11
2023-05-22T03:39:48.812Z,79.61
2023-05-22T03:40:48.803Z,80.05
2023-05-22T03:41:48.788Z,80.35
2023-05-22T03:42:48.781Z,80.15
2023-05-22T03:43:48.777Z,80.51
2023-05-22T03:44:48.813Z,79.61
2023-05-22T03:45:48.858Z,79.34
2023-05-22T03:46:48.769Z,79.81
2023-05-22T03:47:48.834Z,80.05
2023-05-22T03:48:48.764Z,79.71
2023-05-22T03:49:48.770Z,80.01
2023-05-22T03:50:50.258Z,79.16
2023-05-22T03:51:48.728Z,78.76
2023-05-22T03:52:48.755Z,78.56
2023-05-22T03:53:48.711Z,78.46
2023-05-22T03:54:48.707Z,78.46
2023-05-22T03:55:48.717Z,78.46
2023-05-22T03:56:48.749Z,78.76
2023-05-22T03:57:48.685Z,78.66
2023-05-22T03:58:48.699Z,78.66
2023-05-22T03:59:48.673Z,78.80
2023-05-22T04:00:48.687Z,79.85
2023-05-22T04:01:48.664Z,80.05
2023-05-22T04:02:48.737Z,79.64
2023-05-22T04:03:48.652Z,80.35
2023-05-22T04:04:48.720Z,80.35
2023-05-22T04:05:49.641Z,80.55
2023-05-22T04:06:48.652Z,80.01
2023-05-22T04:07:48.612Z,80.31
2023-05-22T04:08:48.610Z,79.91
2023-05-22T04:09:48.620Z,79.64
2023-05-22T04:10:48.646Z,79.91
2023-05-22T04:11:48.612Z,80.01
2023-05-22T04:12:48.655Z,79.30
2023-05-22T04:13:48.589Z,79.36
2023-05-22T04:14:48.589Z,78.86
2023-05-22T04:15:48.581Z,78.46
2023-05-22T04:16:50.342Z,78.96
2023-05-22T04:17:49.618Z,78.96
2023-05-22T04:18:48.544Z,78.56
2023-05-22T04:19:48.566Z,78.02
2023-05-22T04:20:48.611Z,78.66
2023-05-22T04:21:48.531Z,78.36
2023-05-22T04:22:48.565Z,78.46
2023-05-22T04:23:48.529Z,78.56
2023-05-22T04:24:48.519Z,78.66
2023-05-22T04:25:48.548Z,78.63
2023-05-22T04:26:48.506Z,78.22
2023-05-22T04:27:48.514Z,78.26
2023-05-22T04:28:48.499Z,78.56
2023-05-22T04:29:48.490Z,78.63
2023-05-22T04:30:48.526Z,78.56
2023-05-22T04:31:48.498Z,78.96
2023-05-22T04:32:48.566Z,78.72
2023-05-22T04:33:48.471Z,78.08
2023-05-22T04:34:48.471Z,77.38
2023-05-22T04:35:48.508Z,77.17
2023-05-22T04:36:48.463Z,77.24
2023-05-22T04:37:48.454Z,76.94
2023-05-22T04:38:48.452Z,76.20
2023-05-22T04:39:48.505Z,75.79
2023-05-22T04:40:48.435Z,76.40
2023-05-22T04:41:48.437Z,76.70
2023-05-22T04:42:48.435Z,76.20
2023-05-22T04:43:48.426Z,76.50
2023-05-22T04:44:48.434Z,76.40
2023-05-22T04:45:48.424Z,76.06
2023-05-22T04:46:48.441Z,75.15
2023-05-22T04:47:48.424Z,74.95
2023-05-22T04:48:48.388Z,74.35
2023-05-22T04:49:48.392Z,74.72
2023-05-22T04:50:48.514Z,74.58
2023-05-22T04:51:48.426Z,74.08
2023-05-22T04:52:48.390Z,73.71
2023-05-22T04:53:48.371Z,73.98
2023-05-22T04:54:48.418Z,73.98
2023-05-22T04:55:48.514Z,73.58
2023-05-22T04:56:48.350Z,73.68
2023-05-22T04:57:48.370Z,73.47
2023-05-22T04:58:48.354Z,73.88
2023-05-22T04:59:48.323Z,73.88
2023-05-22T05:00:48.386Z,73.14
2023-05-22T05:01:48.348Z,72.53
2023-05-22T05:02:48.833Z,74.21
2023-05-22T05:03:48.421Z,74.85
2023-05-22T05:04:49.232Z,74.48
2023-05-22T05:05:51.240Z,74.28
2023-05-22T05:06:48.328Z,74.04
2023-05-22T05:07:50.119Z,74.18
2023-05-22T05:08:48.381Z,74.48
2023-05-22T05:09:48.301Z,75.18
2023-05-22T05:10:48.259Z,74.15
2023-05-22T05:11:48.248Z,73.34
2023-05-22T05:12:48.298Z,73.61
2023-05-22T05:13:48.227Z,73.10
2023-05-22T05:14:48.241Z,73.50
2023-05-22T05:15:48.320Z,73.30
2023-05-22T05:16:48.323Z,72.87
2023-05-22T05:17:48.242Z,72.90
2023-05-22T05:18:48.249Z,73.81
2023-05-22T05:19:48.217Z,72.67
2023-05-22T05:20:48.202Z,71.93
2023-05-22T05:21:48.197Z,72.24
2023-05-22T05:22:48.194Z,72.33
2023-05-22T05:23:48.163Z,72.13
2023-05-22T05:24:48.172Z,71.73
2023-05-22T05:25:48.158Z,72.00
2023-05-22T05:26:48.214Z,71.80
2023-05-22T05:27:48.159Z,71.06
2023-05-22T05:28:48.151Z,71.36
2023-05-22T05:29:48.142Z,70.56
2023-05-22T05:30:48.229Z,70.73
2023-05-22T05:31:48.157Z,70.43
2023-05-22T05:32:48.203Z,70.43
2023-05-22T05:33:48.158Z,70.23
2023-05-22T05:34:48.091Z,70.19
2023-05-22T05:35:48.804Z,69.39
2023-05-22T05:36:48.089Z,69.29
2023-05-22T05:37:48.099Z,69.39
2023-05-22T05:38:48.076Z,70.32
2023-05-22T05:39:48.089Z,71.16
2023-05-22T05:40:48.051Z,71.59
2023-05-22T05:41:48.044Z,72.09
2023-05-22T05:42:48.172Z,72.20
2023-05-22T05:43:48.067Z,72.20
2023-05-22T05:44:48.039Z,72.03
2023-05-22T05:45:48.062Z,72.40
2023-05-22T05:46:48.037Z,71.86
2023-05-22T05:47:48.040Z,71.26
2023-05-22T05:48:48.044Z,71.46
2023-05-22T05:49:48.012Z,71.77
2023-05-22T05:50:48.001Z,71.36
2023-05-22T05:51:48.003Z,72.03
2023-05-22T05:52:48.015Z,71.39
2023-05-22T05:53:47.988Z,71.63
2023-05-22T05:54:48.039Z,72.03
2023-05-22T05:55:47.960Z,70.83
2023-05-22T05:56:47.988Z,71.50
2023-05-22T05:57:47.957Z,70.29
2023-05-22T05:58:47.960Z,70.39
2023-05-22T05:59:47.954Z,71.59
2023-05-22T06:00:48.646Z,70.46
2023-05-22T06:01:47.968Z,69.96
2023-05-22T06:02:50.498Z,70.06
2023-05-22T06:03:49.201Z,70.76
2023-05-22T06:04:47.984Z,69.96
2023-05-22T06:05:47.970Z,70.56
2023-05-22T06:07:19.899Z,70.46
2023-05-22T06:08:21.312Z,70.12
2023-05-22T06:08:47.922Z,69.43
2023-05-22T06:10:21.353Z,68.79
2023-05-22T06:10:47.907Z,68.66
2023-05-22T06:12:22.347Z,68.76
2023-05-22T06:13:20.303Z,68.66
2023-05-22T06:15:46.632Z,68.26
2023-05-22T06:16:47.807Z,67.63
2023-05-22T06:17:47.791Z,68.52
2023-05-22T06:18:47.728Z,67.86
2023-05-22T06:19:47.675Z,67.43
2023-05-22T06:20:47.699Z,66.89
2023-05-22T06:22:21.106Z,66.66
2023-05-22T06:22:47.721Z,66.27
2023-05-22T06:23:47.673Z,66.06
2023-05-22T06:24:47.680Z,65.97
2023-05-22T06:25:47.637Z,66.89
2023-05-22T06:26:47.624Z,67.96
2023-05-22T06:27:48.034Z,68.69
2023-05-22T06:28:47.992Z,68.86
2023-05-22T06:29:47.671Z,67.93
2023-05-22T06:30:47.845Z,68.79
2023-05-22T06:31:48.689Z,70.23
2023-05-22T06:32:47.799Z,69.09
2023-05-22T06:33:47.783Z,68.36
2023-05-22T06:34:47.621Z,67.83
2023-05-22T06:35:47.598Z,66.89
2023-05-22T06:36:47.548Z,66.96
2023-05-22T06:37:47.581Z,66.47
2023-05-22T06:38:48.526Z,66.56
2023-05-22T06:39:47.770Z,66.03
2023-05-22T06:40:47.563Z,65.83
2023-05-22T06:41:47.524Z,65.70
2023-05-22T06:42:47.549Z,65.70
2023-05-22T06:43:47.520Z,64.97
2023-05-22T06:44:47.499Z,65.47
2023-05-22T06:45:47.591Z,65.17
2023-05-22T06:46:47.510Z,64.45
2023-05-22T06:47:48.516Z,64.25
2023-05-22T06:48:47.486Z,64.97
2023-05-22T06:49:48.354Z,65.57
2023-05-22T06:50:47.578Z,65.14
2023-05-22T06:51:47.467Z,65.14
2023-05-22T06:52:47.892Z,64.22
2023-05-22T06:53:47.460Z,63.92
2023-05-22T06:54:47.512Z,64.22
2023-05-22T06:55:47.440Z,64.72
2023-05-22T06:56:47.442Z,64.22
2023-05-22T06:57:47.549Z,63.92
2023-05-22T06:58:47.456Z,64.61
2023-05-22T06:59:47.420Z,64.58
2023-05-22T07:00:47.403Z,64.18
2023-05-22T07:01:48.479Z,64.18
2023-05-22T07:02:47.430Z,62.66
2023-05-22T07:03:47.532Z,63.95
2023-05-22T07:04:47.451Z,63.36
2023-05-22T07:05:47.438Z,63.16
2023-05-22T07:06:47.376Z,62.83
2023-05-22T07:07:47.370Z,62.93
2023-05-22T07:08:47.357Z,62.30
2023-05-22T07:09:47.369Z,61.80
2023-05-22T07:10:47.368Z,61.38
2023-05-22T07:11:47.333Z,60.88
2023-05-22T07:12:47.346Z,61.71
2023-05-22T07:13:47.329Z,62.01
2023-05-22T07:14:47.346Z,61.98
2023-05-22T07:15:47.320Z,61.78
2023-05-22T07:16:47.339Z,61.08
2023-05-22T07:17:48.342Z,61.08
2023-05-22T07:18:47.321Z,60.78
2023-05-22T07:19:47.325Z,61.05
2023-05-22T07:20:47.301Z,61.65
2023-05-22T07:21:47.272Z,61.88
2023-05-22T07:22:47.307Z,61.45
2023-05-22T07:23:47.283Z,61.35
2023-05-22T07:24:47.283Z,61.45
2023-05-22T07:25:47.294Z,60.56
2023-05-22T07:26:47.273Z,60.72
2023-05-22T07:27:47.263Z,60.30
2023-05-22T07:28:47.250Z,58.95
2023-05-22T07:29:47.257Z,58.26
2023-05-22T07:30:47.265Z,58.23
2023-05-22T07:31:47.302Z,57.71
2023-05-22T07:32:47.317Z,57.81
2023-05-22T07:33:47.252Z,57.68
2023-05-22T07:34:47.212Z,57.39
2023-05-22T07:35:47.196Z,56.14
2023-05-22T07:36:47.287Z,55.55
2023-05-22T07:37:47.227Z,55.33
2023-05-22T07:38:47.811Z,54.11
2023-05-22T07:39:47.221Z,53.30
2023-05-22T07:40:47.222Z,51.89
2023-05-22T07:41:47.182Z,51.50
2023-05-22T07:42:47.172Z,51.50
2023-05-22T07:43:47.374Z,51.67
2023-05-22T07:44:47.166Z,51.67
2023-05-22T07:45:47.155Z,51.57
2023-05-22T07:46:47.234Z,51.20
2023-05-22T07:47:47.162Z,52.04
2023-05-22T07:48:47.121Z,52.95
2023-05-22T07:49:47.131Z,52.93
2023-05-22T07:50:47.130Z,53.03
2023-05-22T07:51:47.163Z,54.02
2023-05-22T07:52:47.112Z,54.34
2023-05-22T07:53:47.102Z,55.58
2023-05-22T07:54:47.075Z,56.20
2023-05-22T07:55:47.091Z,56.52
2023-05-22T07:56:47.251Z,56.79
2023-05-22T07:57:47.161Z,57.41
2023-05-22T07:58:47.060Z,58.75
2023-05-22T07:59:47.066Z,59.78
2023-05-22T08:00:47.034Z,60.30
2023-05-22T08:01:47.054Z,60.34
2023-05-22T08:02:47.165Z,58.15
2023-05-22T08:03:47.253Z,57.43
2023-05-22T08:04:47.072Z,56.71
2023-05-22T08:05:47.103Z,54.19
2023-05-22T08:06:46.984Z,53.30
2023-05-22T08:07:47.050Z,52.78
2023-05-22T08:08:47.009Z,52.75
2023-05-22T08:09:46.986Z,51.12
2023-05-22T08:11:02.656Z,51.28
2023-05-22T08:11:49.021Z,51.92
2023-05-22T08:12:47.816Z,52.66
2023-05-22T08:13:46.961Z,53.38
2023-05-22T08:14:46.945Z,52.86
2023-05-22T08:15:46.928Z,50.90
2023-05-22T08:16:46.970Z,50.14
2023-05-22T08:17:46.979Z,48.61
2023-05-22T08:18:46.968Z,48.69
2023-05-22T08:19:47.024Z,48.18
2023-05-22T08:20:46.917Z,48.47
2023-05-22T08:21:46.920Z,46.34
2023-05-22T08:22:47.870Z,46.02
2023-05-22T08:23:46.893Z,44.45
2023-05-22T08:24:46.950Z,44.45
2023-05-22T08:25:46.865Z,44.53
2023-05-22T08:26:46.865Z,43.31
2023-05-22T08:27:46.875Z,42.38
2023-05-22T08:28:46.909Z,41.82
2023-05-22T08:29:46.889Z,42.50
2023-05-22T08:30:46.925Z,43.19
2023-05-22T08:31:46.967Z,43.38
2023-05-22T08:32:46.863Z,43.38
2023-05-22T08:33:46.930Z,44.13
2023-05-22T08:34:46.855Z,45.67
2023-05-22T08:35:46.870Z,45.99
2023-05-22T08:36:46.806Z,44.06
2023-05-22T08:37:46.800Z,45.04
2023-05-22T08:38:46.793Z,45.55
2023-05-22T08:39:46.891Z,46.06
2023-05-22T08:40:46.947Z,46.19
2023-05-22T08:41:46.782Z,45.48
2023-05-22T08:42:48.285Z,45.14
2023-05-22T08:43:46.816Z,43.82
2023-05-22T08:44:46.768Z,43.56
2023-05-22T08:45:46.792Z,42.64
2023-05-22T08:46:46.790Z,42.01
2023-05-22T08:47:46.753Z,40.33
2023-05-22T08:48:46.770Z,41.21
2023-05-22T08:49:46.766Z,41.23
2023-05-22T08:50:46.730Z,42.35
2023-05-22T08:51:46.722Z,42.46
2023-05-22T08:52:46.726Z,43.68
2023-05-22T08:53:46.743Z,43.04
2023-05-22T08:54:46.721Z,43.94
2023-05-22T08:55:46.714Z,43.65
2023-05-22T08:56:56.104Z,43.45
2023-05-22T08:57:48.668Z,43.35
2023-05-22T08:58:46.677Z,43.82
2023-05-22T08:59:46.694Z,43.84
2023-05-22T09:00:46.696Z,43.98
2023-05-22T09:01:46.718Z,44.81
2023-05-22T09:02:46.696Z,45.48
2023-05-22T09:03:46.737Z,46.17
2023-05-22T09:04:46.672Z,45.48
2023-05-22T09:05:46.646Z,43.65
2023-05-22T09:06:46.627Z,43.21
2023-05-22T09:07:46.680Z,42.21
2023-05-22T09:08:46.607Z,41.68
2023-05-22T09:09:46.609Z,42.36
2023-05-22T09:10:46.675Z,43.37
2023-05-22T09:11:46.623Z,43.27
2023-05-22T09:12:46.619Z,43.07
2023-05-22T09:13:46.588Z,43.29
2023-05-22T09:14:47.588Z,43.65
2023-05-22T09:15:46.601Z,43.43
2023-05-22T09:16:46.616Z,43.70
2023-05-22T09:17:46.567Z,43.82
2023-05-22T09:18:46.581Z,43.65
2023-05-22T09:19:46.573Z,43.84
2023-05-22T09:20:46.561Z,43.26
2023-05-22T09:21:46.540Z,43.43
2023-05-22T09:22:46.628Z,44.43
2023-05-22T09:23:46.565Z,45.75
2023-05-22T09:24:47.577Z,45.48
2023-05-22T09:25:46.557Z,45.09
2023-05-22T09:26:46.544Z,44.37
2023-05-22T09:27:46.557Z,44.57
2023-05-22T09:28:46.514Z,45.45
2023-05-22T09:29:46.549Z,45.28
2023-05-22T09:30:46.572Z,46.28
2023-05-22T09:31:46.797Z,45.10
2023-05-22T09:32:46.538Z,46.06
2023-05-22T09:33:46.477Z,46.10
2023-05-22T09:34:46.485Z,43.84
2023-05-22T09:35:46.536Z,45.31
2023-05-22T09:36:46.473Z,46.46
2023-05-22T09:37:46.463Z,46.78
2023-05-22T09:38:46.445Z,45.87
2023-05-22T09:39:46.458Z,46.19
2023-05-22T09:40:46.531Z,46.06
2023-05-22T09:41:46.435Z,47.96
2023-05-22T09:42:46.462Z,48.05
2023-05-22T09:43:46.418Z,47.76
2023-05-22T09:44:46.397Z,48.15
2023-05-22T09:45:46.402Z,48.86
2023-05-22T09:46:47.769Z,48.20
2023-05-22T09:47:46.423Z,47.58
2023-05-22T09:48:46.380Z,46.53
2023-05-22T09:49:46.368Z,46.30
2023-05-22T09:50:46.358Z,45.21
2023-05-22T09:51:46.375Z,44.31
2023-05-22T09:52:46.336Z,43.68
2023-05-22T09:53:46.339Z,43.48
2023-05-22T09:54:46.329Z,43.98
2023-05-22T09:55:46.325Z,43.99
2023-05-22T09:56:46.333Z,43.77
2023-05-22T09:57:46.318Z,42.97
2023-05-22T09:58:46.310Z,42.85
2023-05-22T09:59:46.295Z,42.25
2023-05-22T10:00:46.297Z,40.84
2023-05-22T10:01:46.368Z,40.62
2023-05-22T10:02:47.377Z,39.14
2023-05-22T10:03:48.649Z,39.12
2023-05-22T10:04:47.406Z,37.54
2023-05-22T10:05:46.276Z,37.91
2023-05-22T10:06:46.282Z,36.84
2023-05-22T10:07:46.262Z,36.80
2023-05-22T10:08:46.240Z,36.72
2023-05-22T10:09:47.239Z,36.66
2023-05-22T10:10:46.261Z,36.04
2023-05-22T10:11:46.221Z,35.42
2023-05-22T10:12:46.229Z,36.12
2023-05-22T10:13:46.215Z,36.02
2023-05-22T10:14:46.209Z,35.73
2023-05-22T10:15:46.382Z,35.25
2023-05-22T10:16:46.196Z,35.34
2023-05-22T10:17:46.290Z,35.28
2023-05-22T10:18:46.384Z,36.06
2023-05-22T10:19:46.934Z,36.76
2023-05-22T10:20:47.288Z,36.27
2023-05-22T10:21:46.245Z,36.16
2023-05-22T10:22:46.178Z,34.99
2023-05-22T10:23:46.177Z,34.99
2023-05-22T10:24:46.173Z,34.47
2023-05-22T10:25:46.169Z,34.33
2023-05-22T10:26:46.153Z,33.73
2023-05-22T10:27:47.196Z,33.80
2023-05-22T10:28:46.157Z,33.29
2023-05-22T10:29:46.151Z,33.78
2023-05-22T10:30:46.144Z,33.09
2023-05-22T10:31:46.389Z,32.37
2023-05-22T10:32:46.240Z,33.02
2023-05-22T10:33:46.156Z,32.44
2023-05-22T10:34:46.111Z,31.44
2023-05-22T10:35:46.186Z,30.78
2023-05-22T10:36:48.213Z,31.78
2023-05-22T10:37:48.239Z,32.50
2023-05-22T10:38:46.392Z,33.22
2023-05-22T10:39:46.237Z,33.99
2023-05-22T10:40:47.313Z,33.61
2023-05-22T10:41:46.062Z,33.80
2023-05-22T10:42:46.065Z,33.59
2023-05-22T10:43:46.076Z,33.56
2023-05-22T10:44:46.044Z,32.75
2023-05-22T10:45:46.121Z,31.74
2023-05-22T10:46:46.080Z,30.94
2023-05-22T10:47:46.192Z,29.86
2023-05-22T10:48:46.038Z,31.12
2023-05-22T10:49:46.063Z,29.45
2023-05-22T10:50:46.137Z,29.56
2023-05-22T10:51:46.072Z,31.52
2023-05-22T10:52:46.104Z,30.99
2023-05-22T10:53:46.228Z,32.54
2023-05-22T10:54:46.009Z,34.63
2023-05-22T10:55:46.912Z,34.59
2023-05-22T10:56:45.973Z,33.70
2023-05-22T10:57:46.015Z,32.60
2023-05-22T10:58:45.969Z,32.64
2023-05-22T10:59:45.982Z,32.87
2023-05-22T11:00:45.975Z,32.97
2023-05-22T11:01:46.005Z,31.82
2023-05-22T11:02:46.045Z,32.73
2023-05-22T11:03:46.091Z,32.60
2023-05-22T11:04:46.005Z,33.81
2023-05-22T11:05:45.914Z,33.53
2023-05-22T11:06:46.858Z,33.01
2023-05-22T11:07:45.911Z,32.37
2023-05-22T11:08:45.929Z,32.41
2023-05-22T11:09:45.912Z,32.24
2023-05-22T11:10:45.900Z,32.18
2023-05-22T11:11:45.908Z,30.89
2023-05-22T11:12:45.906Z,29.96
2023-05-22T11:13:45.892Z,28.76
2023-05-22T11:14:45.946Z,28.33
2023-05-22T11:15:46.893Z,27.15
2023-05-22T11:16:45.922Z,28.05
2023-05-22T11:17:46.014Z,28.45
2023-05-22T11:18:47.241Z,29.39
2023-05-22T11:19:46.040Z,30.88
2023-05-22T11:20:45.896Z,30.88
2023-05-22T11:21:45.896Z,30.46
2023-05-22T11:22:45.860Z,30.39
2023-05-22T11:23:45.865Z,30.79
2023-05-22T11:24:45.864Z,31.12
2023-05-22T11:25:45.844Z,32.57
2023-05-22T11:26:45.826Z,32.62
2023-05-22T11:27:45.824Z,33.46
2023-05-22T11:28:45.811Z,34.29
2023-05-22T11:29:45.833Z,34.48
2023-05-22T11:30:45.918Z,33.81
2023-05-22T11:31:45.816Z,32.18
2023-05-22T11:32:45.834Z,31.89
2023-05-22T11:33:45.789Z,32.79
2023-05-22T11:34:47.687Z,32.52
2023-05-22T11:35:45.861Z,32.50
2023-05-22T11:36:45.781Z,33.39
2023-05-22T11:37:45.818Z,33.81
2023-05-22T11:38:45.755Z,33.53
2023-05-22T11:39:45.783Z,33.99
2023-05-22T11:40:45.777Z,33.81
2023-05-22T11:41:45.823Z,33.99
2023-05-22T11:42:45.746Z,34.43
2023-05-22T11:43:45.768Z,33.80
2023-05-22T11:44:45.911Z,33.86
2023-05-22T11:45:46.898Z,33.22
2023-05-22T11:46:45.889Z,34.32
2023-05-22T11:47:45.832Z,33.99
2023-05-22T11:48:45.953Z,33.26
2023-05-22T11:49:45.991Z,33.31
2023-05-22T11:50:46.011Z,33.11
2023-05-22T11:51:45.786Z,33.31
2023-05-22T11:52:45.699Z,32.97
2023-05-22T11:53:45.672Z,32.44
2023-05-22T11:54:45.654Z,31.13
2023-05-22T11:55:45.732Z,31.12
2023-05-22T11:56:45.662Z,30.96
2023-05-22T11:57:45.641Z,30.36
2023-05-22T11:58:45.683Z,30.54
2023-05-22T11:59:45.643Z,30.43
2023-05-22T12:00:45.726Z,30.08
2023-05-22T12:01:45.659Z,30.04
2023-05-22T12:02:45.764Z,28.59
2023-05-22T12:03:45.764Z,32.62
2023-05-22T12:04:45.605Z,33.69
2023-05-22T12:05:45.649Z,31.91
2023-05-22T12:06:45.724Z,31.41
2023-05-22T12:07:45.756Z,31.89
2023-05-22T12:08:45.614Z,32.71
2023-05-22T12:09:45.595Z,32.76
2023-05-22T12:10:45.648Z,32.59
2023-05-22T12:11:45.553Z,32.92
2023-05-22T12:12:45.606Z,33.62
2023-05-22T12:13:45.603Z,33.53
2023-05-22T12:14:45.548Z,32.50
2023-05-22T12:15:45.541Z,32.42
2023-05-22T12:16:45.596Z,33.43
2023-05-22T12:17:45.579Z,34.90
2023-05-22T12:18:45.753Z,34.30
2023-05-22T12:19:45.530Z,32.64
2023-05-22T12:20:45.550Z,32.52
2023-05-22T12:21:45.550Z,33.12
2023-05-22T12:22:45.526Z,33.61
2023-05-22T12:23:45.648Z,33.47
2023-05-22T12:24:45.544Z,33.29
2023-05-22T12:25:45.506Z,32.18
2023-05-22T12:26:45.482Z,31.79
2023-05-22T12:27:45.488Z,31.50
2023-05-22T12:28:45.514Z,32.62
2023-05-22T12:29:45.572Z,31.89
2023-05-22T12:30:45.507Z,32.29
2023-05-22T12:31:45.487Z,32.13
2023-05-22T12:32:45.491Z,32.82
2023-05-22T12:33:45.591Z,32.47
2023-05-22T12:34:45.478Z,31.09
2023-05-22T12:35:45.449Z,31.87
2023-05-22T12:36:45.490Z,33.46
2023-05-22T12:37:45.465Z,33.81
2023-05-22T12:38:45.492Z,35.33
2023-05-22T12:39:45.524Z,35.73
2023-05-22T12:40:45.431Z,35.78
2023-05-22T12:41:45.449Z,36.78
2023-05-22T12:42:45.430Z,36.27
2023-05-22T12:43:45.449Z,36.96
2023-05-22T12:44:45.412Z,36.55
2023-05-22T12:45:45.421Z,34.88
2023-05-22T12:46:45.483Z,35.59
2023-05-22T12:47:45.459Z,35.25
2023-05-22T12:48:45.409Z,35.73
2023-05-22T12:49:45.386Z,34.72
2023-05-22T12:50:45.410Z,34.20
2023-05-22T12:51:45.392Z,34.94
2023-05-22T12:52:45.486Z,35.05
2023-05-22T12:53:45.371Z,35.71
2023-05-22T12:54:45.393Z,33.99